createdAt,value
2018-11-01T00:00:14.918Z,13.52
2018-11-01T00:01:20.430Z,13.52
2018-11-01T00:02:25.946Z,13.55
2018-11-01T00:03:31.453Z,13.49
2018-11-01T00:04:36.964Z,13.54
2018-11-01T00:05:42.480Z,13.47
2018-11-01T00:06:47.989Z,13.55
2018-11-01T00:07:53.502Z,13.43
2018-11-01T00:08:59.017Z,13.51
2018-11-01T00:10:04.531Z,13.44
2018-11-01T00:11:10.030Z,13.46
2018-11-01T00:12:15.548Z,13.43
2018-11-01T00:13:21.057Z,13.46
2018-11-01T00:14:26.570Z,13.46
2018-11-01T00:15:32.085Z,13.44
2018-11-01T00:16:37.599Z,13.37
2018-11-01T00:17:43.114Z,13.25
2018-11-01T00:18:48.620Z,13.37
2018-11-01T00:19:54.134Z,13.37
2018-11-01T00:20:59.648Z,13.32
2018-11-01T00:22:05.164Z,13.40
2018-11-01T00:23:10.666Z,13.37
2018-11-01T00:24:16.182Z,13.33
2018-11-01T00:25:21.697Z,13.29
2018-11-01T00:26:27.205Z,13.32
2018-11-01T00:27:32.720Z,13.29
2018-11-01T00:28:38.227Z,13.29
2018-11-01T00:29:43.741Z,13.32
2018-11-01T00:30:49.260Z,13.22
2018-11-01T00:31:54.763Z,13.30
2018-11-01T00:33:00.271Z,13.24
2018-11-01T00:34:05.787Z,13.25
2018-11-01T00:35:11.301Z,13.24
2018-11-01T00:36:16.811Z,13.30
2018-11-01T00:37:22.331Z,13.27
2018-11-01T00:38:27.833Z,13.21
2018-11-01T00:39:33.353Z,13.25
2018-11-01T00:40:38.859Z,13.30
2018-11-01T00:41:44.378Z,13.21
2018-11-01T00:42:49.887Z,13.27
2018-11-01T00:43:55.392Z,13.29
2018-11-01T00:45:00.914Z,13.21
2018-11-01T00:46:06.406Z,13.33
2018-11-01T00:47:11.932Z,13.18
2018-11-01T00:48:17.520Z,13.21
2018-11-01T00:49:22.949Z,13.33
2018-11-01T00:50:28.486Z,13.24
2018-11-01T00:51:33.975Z,13.21
2018-11-01T00:52:39.488Z,13.27
2018-11-01T00:53:44.999Z,13.27
2018-11-01T00:54:50.507Z,13.22
2018-11-01T00:55:56.027Z,13.14
2018-11-01T00:57:01.532Z,13.17
2018-11-01T00:58:07.045Z,13.07
2018-11-01T00:59:12.553Z,13.22
2018-11-01T01:00:18.071Z,13.17
2018-11-01T01:01:23.581Z,13.17
2018-11-01T01:02:29.089Z,13.18
2018-11-01T01:03:34.603Z,13.22
2018-11-01T01:04:40.125Z,13.20
2018-11-01T01:05:45.630Z,13.17
2018-11-01T01:06:51.138Z,13.24
2018-11-01T01:07:56.653Z,13.22
2018-11-01T01:09:02.162Z,13.21
2018-11-01T01:10:07.680Z,13.24
2018-11-01T01:11:13.200Z,13.27
2018-11-01T01:12:18.697Z,13.30
2018-11-01T01:13:24.207Z,13.30
2018-11-01T01:14:29.729Z,13.32
2018-11-01T01:15:35.228Z,13.36
2018-11-01T01:16:40.746Z,13.38
2018-11-01T01:17:46.256Z,13.27
2018-11-01T01:18:51.838Z,13.30
2018-11-01T01:19:57.277Z,13.30
2018-11-01T01:21:02.786Z,13.36
2018-11-01T01:22:08.304Z,13.37
2018-11-01T01:23:13.813Z,13.33
2018-11-01T01:24:19.326Z,13.37
2018-11-01T01:25:24.833Z,13.41
2018-11-01T01:26:30.349Z,13.33
2018-11-01T01:27:35.860Z,13.36
2018-11-01T01:28:41.374Z,13.46
2018-11-01T01:29:46.884Z,13.33
2018-11-01T01:30:52.405Z,13.36
2018-11-01T01:31:57.914Z,13.38
2018-11-01T01:33:03.417Z,13.33
2018-11-01T01:34:08.934Z,13.30
2018-11-01T01:35:14.443Z,13.36
2018-11-01T01:36:19.953Z,13.32
2018-11-01T01:37:25.468Z,13.33
2018-11-01T01:38:30.978Z,13.30
2018-11-01T01:39:36.486Z,13.29
2018-11-01T01:40:42.000Z,13.30
2018-11-01T01:41:47.512Z,13.24
2018-11-01T01:42:53.025Z,13.29
2018-11-01T01:43:58.538Z,13.25
2018-11-01T01:45:04.046Z,13.21
2018-11-01T01:46:09.557Z,13.20
2018-11-01T01:47:15.070Z,13.25
2018-11-01T01:48:20.593Z,13.25
2018-11-01T01:49:26.094Z,13.20
2018-11-01T01:50:31.631Z,13.25
2018-11-01T01:51:37.126Z,13.20
2018-11-01T01:52:42.636Z,13.17
2018-11-01T01:53:48.142Z,13.21
2018-11-01T01:54:53.655Z,13.06
2018-11-01T01:55:59.163Z,13.03
2018-11-01T01:57:04.673Z,13.03
2018-11-01T01:58:10.190Z,13.04
2018-11-01T01:59:15.702Z,12.99
2018-11-01T02:00:21.224Z,12.95
2018-11-01T02:01:26.722Z,13.00
2018-11-01T02:02:32.239Z,12.93
2018-11-01T02:03:37.746Z,12.89
2018-11-01T02:04:43.255Z,12.87
2018-11-01T02:05:48.778Z,12.93
2018-11-01T02:06:54.282Z,12.85
2018-11-01T02:07:59.799Z,12.81
2018-11-01T02:09:05.299Z,12.82
2018-11-01T02:10:10.814Z,12.77
2018-11-01T02:11:16.327Z,12.78
2018-11-01T02:12:21.850Z,12.74
2018-11-01T02:13:27.347Z,12.70
2018-11-01T02:14:32.863Z,12.70
2018-11-01T02:15:38.375Z,12.63
2018-11-01T02:16:43.885Z,12.64
2018-11-01T02:17:49.407Z,12.59
2018-11-01T02:18:54.915Z,12.56
2018-11-01T02:20:00.421Z,12.49
2018-11-01T02:21:05.931Z,12.59
2018-11-01T02:22:11.446Z,12.54
2018-11-01T02:23:16.960Z,12.56
2018-11-01T02:24:22.462Z,12.59
2018-11-01T02:25:27.973Z,12.52
2018-11-01T02:26:33.490Z,12.41
2018-11-01T02:27:38.997Z,12.38
2018-11-01T02:28:44.511Z,12.38
2018-11-01T02:29:50.024Z,12.38
2018-11-01T02:30:55.533Z,12.30
2018-11-01T02:32:01.046Z,12.23
2018-11-01T02:33:06.587Z,12.29
2018-11-01T02:34:12.063Z,12.27
2018-11-01T02:35:17.581Z,12.29
2018-11-01T02:36:23.086Z,12.33
2018-11-01T02:37:28.602Z,12.24
2018-11-01T02:38:34.239Z,12.24
2018-11-01T02:39:39.625Z,12.31
2018-11-01T02:40:45.134Z,12.21
2018-11-01T02:41:50.645Z,12.23
2018-11-01T02:42:56.156Z,12.15
2018-11-01T02:44:01.669Z,12.26
2018-11-01T02:45:07.176Z,12.16
2018-11-01T02:46:12.692Z,12.13
2018-11-01T02:47:18.209Z,12.11
2018-11-01T02:48:23.719Z,12.12
2018-11-01T02:49:29.223Z,12.13
2018-11-01T02:50:34.734Z,12.15
2018-11-01T02:51:40.252Z,12.09
2018-11-01T02:52:45.757Z,12.13
2018-11-01T02:53:51.273Z,12.05
2018-11-01T02:54:56.780Z,12.12
2018-11-01T02:56:02.286Z,12.12
2018-11-01T02:57:07.800Z,12.12
2018-11-01T02:58:13.333Z,12.06
2018-11-01T02:59:18.820Z,12.06
2018-11-01T03:00:24.332Z,11.93
2018-11-01T03:01:29.847Z,11.90
2018-11-01T03:02:35.350Z,11.93
2018-11-01T03:03:40.868Z,11.85
2018-11-01T03:04:46.373Z,11.80
2018-11-01T03:05:51.887Z,11.74
2018-11-01T03:06:57.399Z,11.71
2018-11-01T03:08:02.914Z,11.62
2018-11-01T03:09:08.418Z,11.54
2018-11-01T03:10:13.940Z,11.56
2018-11-01T03:11:19.442Z,11.43
2018-11-01T03:12:24.957Z,11.36
2018-11-01T03:13:30.480Z,11.36
2018-11-01T03:14:35.975Z,11.32
2018-11-01T03:15:41.483Z,11.35
2018-11-01T03:16:47.007Z,11.29
2018-11-01T03:17:52.514Z,11.27
2018-11-01T03:18:58.019Z,11.31
2018-11-01T03:20:03.531Z,11.19
2018-11-01T03:21:09.039Z,11.19
2018-11-01T03:22:14.549Z,11.13
2018-11-01T03:23:20.059Z,11.13
2018-11-01T03:24:25.573Z,11.11
2018-11-01T03:25:31.083Z,11.03
2018-11-01T03:26:36.652Z,11.07
2018-11-01T03:27:42.102Z,10.98
2018-11-01T03:28:47.614Z,10.95
2018-11-01T03:29:53.125Z,11.02
2018-11-01T03:30:58.631Z,10.98
2018-11-01T03:32:04.142Z,10.92
2018-11-01T03:33:09.659Z,10.94
2018-11-01T03:34:15.180Z,10.80
2018-11-01T03:35:20.675Z,10.80
2018-11-01T03:36:26.185Z,10.86
2018-11-01T03:37:31.696Z,10.77
2018-11-01T03:38:37.234Z,10.74
2018-11-01T03:39:42.712Z,10.81
2018-11-01T03:40:48.230Z,10.83
2018-11-01T03:41:53.740Z,10.76
2018-11-01T03:42:59.246Z,10.70
2018-11-01T03:44:04.752Z,10.71
2018-11-01T03:45:10.264Z,10.65
2018-11-01T03:46:15.776Z,10.70
2018-11-01T03:47:21.288Z,10.63
2018-11-01T03:48:26.797Z,10.65
2018-11-01T03:49:32.305Z,10.55
2018-11-01T03:50:37.817Z,10.55
2018-11-01T03:51:43.363Z,10.63
2018-11-01T03:52:48.839Z,10.60
2018-11-01T03:53:54.367Z,10.56
2018-11-01T03:54:59.862Z,10.62
2018-11-01T03:56:05.373Z,10.53
2018-11-01T03:57:10.889Z,10.47
2018-11-01T03:58:16.391Z,10.44
2018-11-01T03:59:21.901Z,10.43
2018-11-01T04:00:27.415Z,10.43
2018-11-01T04:01:32.932Z,10.40
2018-11-01T04:02:38.434Z,10.37
2018-11-01T04:03:44.016Z,10.36
2018-11-01T04:04:49.450Z,10.37
2018-11-01T04:05:54.962Z,10.36
2018-11-01T04:07:00.475Z,10.32
2018-11-01T04:08:05.977Z,10.33
2018-11-01T04:09:11.491Z,10.33
2018-11-01T04:10:16.999Z,10.30
2018-11-01T04:11:22.506Z,10.24
2018-11-01T04:12:28.021Z,10.22
2018-11-01T04:13:33.595Z,10.19
2018-11-01T04:14:39.037Z,10.26
2018-11-01T04:15:44.554Z,10.18
2018-11-01T04:16:50.078Z,10.18
2018-11-01T04:17:55.569Z,10.12
2018-11-01T04:19:01.079Z,10.17
2018-11-01T04:20:06.602Z,10.09
2018-11-01T04:21:12.099Z,10.07
2018-11-01T04:22:17.609Z,10.04
2018-11-01T04:23:23.220Z,10.04
2018-11-01T04:24:28.628Z,9.96
2018-11-01T04:25:34.154Z,9.97
2018-11-01T04:26:39.643Z,10.00
2018-11-01T04:27:45.163Z,10.00
2018-11-01T04:28:50.668Z,9.99
2018-11-01T04:29:56.174Z,9.97
2018-11-01T04:31:01.684Z,9.89
2018-11-01T04:32:07.197Z,9.91
2018-11-01T04:33:12.730Z,9.94
2018-11-01T04:34:18.214Z,9.94
2018-11-01T04:35:23.734Z,9.96
2018-11-01T04:36:29.235Z,9.91
2018-11-01T04:37:34.744Z,9.86
2018-11-01T04:38:40.253Z,9.94
2018-11-01T04:39:45.768Z,9.86
2018-11-01T04:40:51.273Z,9.94
2018-11-01T04:41:56.819Z,9.93
2018-11-01T04:43:02.302Z,9.94
2018-11-01T04:44:07.832Z,9.91
2018-11-01T04:45:13.320Z,9.96
2018-11-01T04:46:18.829Z,9.85
2018-11-01T04:47:24.348Z,9.81
2018-11-01T04:48:29.837Z,9.79
2018-11-01T04:49:35.347Z,9.79
2018-11-01T04:50:40.856Z,9.79
2018-11-01T04:51:46.371Z,9.78
2018-11-01T04:52:51.876Z,9.76
2018-11-01T04:53:57.395Z,9.75
2018-11-01T04:55:02.905Z,9.81
2018-11-01T04:56:08.417Z,9.81
2018-11-01T04:57:13.917Z,9.78
2018-11-01T04:58:19.427Z,9.71
2018-11-01T04:59:24.938Z,9.67
2018-11-01T05:00:30.445Z,9.66
2018-11-01T05:01:35.960Z,9.63
2018-11-01T05:02:41.462Z,9.64
2018-11-01T05:03:46.987Z,9.63
2018-11-01T05:04:52.496Z,9.56
2018-11-01T05:05:57.993Z,9.57
2018-11-01T05:07:03.506Z,9.57
2018-11-01T05:08:09.017Z,9.53
2018-11-01T05:09:14.526Z,9.57
2018-11-01T05:10:20.033Z,9.57
2018-11-01T05:11:25.538Z,9.52
2018-11-01T05:12:31.052Z,9.53
2018-11-01T05:13:36.563Z,9.49
2018-11-01T05:14:42.073Z,9.42
2018-11-01T05:15:47.580Z,9.42
2018-11-01T05:16:53.087Z,9.35
2018-11-01T05:17:58.599Z,9.34
2018-11-01T05:19:04.112Z,9.38
2018-11-01T05:20:09.633Z,9.32
2018-11-01T05:21:15.127Z,9.23
2018-11-01T05:22:20.632Z,9.32
2018-11-01T05:23:26.147Z,9.28
2018-11-01T05:24:31.656Z,9.25
2018-11-01T05:25:37.199Z,9.24
2018-11-01T05:26:42.670Z,9.27
2018-11-01T05:27:48.182Z,9.21
2018-11-01T05:28:53.695Z,9.21
2018-11-01T05:29:59.201Z,9.23
2018-11-01T05:31:04.711Z,9.15
2018-11-01T05:32:10.219Z,9.12
2018-11-01T05:33:15.725Z,9.15
2018-11-01T05:34:21.253Z,9.10
2018-11-01T05:35:26.756Z,9.16
2018-11-01T05:36:32.257Z,9.10
2018-11-01T05:37:37.764Z,9.01
2018-11-01T05:38:43.273Z,9.04
2018-11-01T05:39:48.781Z,8.97
2018-11-01T05:40:54.294Z,8.97
2018-11-01T05:41:59.811Z,8.97
2018-11-01T05:43:05.319Z,9.01
2018-11-01T05:44:10.820Z,8.96
2018-11-01T05:45:16.328Z,8.97
2018-11-01T05:46:21.833Z,8.94
2018-11-01T05:47:27.346Z,8.90
2018-11-01T05:48:32.855Z,8.96
2018-11-01T05:49:38.362Z,8.99
2018-11-01T05:50:43.872Z,8.88
2018-11-01T05:51:49.382Z,8.91
2018-11-01T05:52:54.890Z,8.97
2018-11-01T05:54:00.397Z,8.87
2018-11-01T05:55:05.912Z,8.83
2018-11-01T05:56:11.420Z,8.79
2018-11-01T05:57:16.929Z,8.79
2018-11-01T05:58:22.436Z,8.75
2018-11-01T05:59:27.942Z,8.71
2018-11-01T06:00:33.455Z,8.69
2018-11-01T06:01:38.971Z,8.69
2018-11-01T06:02:44.473Z,8.66
2018-11-01T06:03:49.985Z,8.68
2018-11-01T06:04:55.491Z,8.68
2018-11-01T06:06:00.997Z,8.68
2018-11-01T06:07:06.509Z,8.68
2018-11-01T06:08:12.013Z,8.60
2018-11-01T06:09:17.524Z,8.68
2018-11-01T06:10:23.037Z,8.65
2018-11-01T06:11:28.544Z,8.66
2018-11-01T06:12:34.091Z,8.66
2018-11-01T06:13:39.563Z,8.58
2018-11-01T06:14:45.070Z,8.58
2018-11-01T06:15:50.580Z,8.53
2018-11-01T06:16:56.088Z,8.53
2018-11-01T06:18:01.597Z,8.53
2018-11-01T06:19:07.110Z,8.48
2018-11-01T06:20:12.611Z,8.51
2018-11-01T06:21:18.122Z,8.48
2018-11-01T06:22:23.629Z,8.53
2018-11-01T06:23:29.141Z,8.53
2018-11-01T06:24:34.648Z,8.65
2018-11-01T06:25:40.162Z,8.66
2018-11-01T06:26:45.669Z,8.72
2018-11-01T06:27:51.174Z,8.73
2018-11-01T06:28:56.688Z,8.86
2018-11-01T06:30:02.198Z,8.87
2018-11-01T06:31:07.699Z,8.94
2018-11-01T06:32:13.211Z,8.97
2018-11-01T06:33:18.721Z,9.01
2018-11-01T06:34:24.228Z,8.97
2018-11-01T06:35:29.746Z,9.05
2018-11-01T06:36:35.251Z,9.12
2018-11-01T06:37:40.756Z,9.25
2018-11-01T06:38:46.259Z,9.28
2018-11-01T06:39:51.769Z,9.30
2018-11-01T06:40:57.292Z,9.34
2018-11-01T06:42:02.791Z,9.38
2018-11-01T06:43:08.300Z,9.35
2018-11-01T06:44:13.851Z,9.49
2018-11-01T06:45:19.313Z,9.58
2018-11-01T06:46:24.827Z,9.52
2018-11-01T06:47:30.337Z,9.58
2018-11-01T06:48:35.845Z,9.70
2018-11-01T06:49:41.353Z,9.67
2018-11-01T06:50:46.867Z,9.67
2018-11-01T06:51:52.373Z,9.79
2018-11-01T06:52:57.879Z,9.81
2018-11-01T06:54:03.395Z,9.82
2018-11-01T06:55:08.901Z,9.86
2018-11-01T06:56:14.404Z,9.97
2018-11-01T06:57:19.918Z,10.00
2018-11-01T06:58:25.515Z,10.01
2018-11-01T06:59:31.015Z,10.09
2018-11-01T07:00:36.443Z,10.09
2018-11-01T07:01:41.953Z,10.19
2018-11-01T07:02:47.462Z,10.15
2018-11-01T07:03:52.976Z,10.18
2018-11-01T07:04:58.483Z,10.22
2018-11-01T07:06:03.999Z,10.28
2018-11-01T07:07:09.495Z,10.33
2018-11-01T07:08:15.014Z,10.32
2018-11-01T07:09:20.522Z,10.40
2018-11-01T07:10:26.028Z,10.43
2018-11-01T07:11:31.639Z,10.44
2018-11-01T07:12:37.051Z,10.40
2018-11-01T07:13:42.559Z,10.44
2018-11-01T07:14:48.069Z,10.44
2018-11-01T07:15:53.578Z,10.52
2018-11-01T07:16:59.095Z,10.58
2018-11-01T07:18:04.603Z,10.58
2018-11-01T07:19:10.115Z,10.71
2018-11-01T07:20:15.619Z,10.68
2018-11-01T07:21:21.126Z,10.58
2018-11-01T07:22:26.645Z,10.58
2018-11-01T07:23:32.154Z,10.66
2018-11-01T07:24:37.657Z,10.76
2018-11-01T07:25:43.206Z,10.70
2018-11-01T07:26:48.679Z,10.78
2018-11-01T07:27:54.186Z,10.73
2018-11-01T07:28:59.696Z,10.81
2018-11-01T07:30:05.209Z,10.89
2018-11-01T07:31:10.714Z,10.81
2018-11-01T07:32:16.222Z,10.91
2018-11-01T07:33:21.736Z,10.96
2018-11-01T07:34:27.253Z,11.01
2018-11-01T07:35:32.762Z,11.01
2018-11-01T07:36:38.265Z,11.03
2018-11-01T07:37:43.793Z,11.09
2018-11-01T07:38:49.292Z,11.07
2018-11-01T07:39:54.818Z,11.11
2018-11-01T07:41:00.306Z,11.16
2018-11-01T07:42:05.821Z,11.16
2018-11-01T07:43:11.335Z,11.14
2018-11-01T07:44:16.839Z,11.20
2018-11-01T07:45:22.349Z,11.29
2018-11-01T07:46:27.876Z,11.27
2018-11-01T07:47:33.369Z,11.32
2018-11-01T07:48:38.955Z,11.32
2018-11-01T07:49:44.404Z,11.36
2018-11-01T07:50:49.899Z,11.34
2018-11-01T07:51:55.404Z,11.43
2018-11-01T07:53:00.930Z,11.49
2018-11-01T07:54:06.447Z,11.64
2018-11-01T07:55:11.937Z,11.62
2018-11-01T07:56:17.450Z,11.68
2018-11-01T07:57:22.967Z,11.72
2018-11-01T07:58:28.490Z,11.74
2018-11-01T07:59:33.983Z,11.80
2018-11-01T08:00:39.492Z,11.85
2018-11-01T08:01:45.003Z,11.87
2018-11-01T08:02:50.511Z,11.82
2018-11-01T08:03:56.021Z,11.82
2018-11-01T08:05:01.566Z,11.86
2018-11-01T08:06:07.096Z,11.85
2018-11-01T08:07:12.551Z,11.85
2018-11-01T08:08:18.065Z,11.85
2018-11-01T08:09:23.576Z,11.86
2018-11-01T08:10:29.083Z,11.78
2018-11-01T08:11:34.603Z,11.85
2018-11-01T08:12:40.117Z,11.86
2018-11-01T08:13:45.622Z,11.87
2018-11-01T08:14:51.136Z,11.82
2018-11-01T08:15:56.642Z,11.82
2018-11-01T08:17:02.150Z,11.86
2018-11-01T08:18:07.665Z,11.90
2018-11-01T08:19:13.176Z,11.93
2018-11-01T08:20:18.918Z,11.96
2018-11-01T08:21:24.195Z,11.94
2018-11-01T08:22:29.703Z,11.93
2018-11-01T08:23:35.215Z,12.06
2018-11-01T08:24:40.727Z,11.99
2018-11-01T08:25:46.235Z,12.09
2018-11-01T08:26:51.747Z,12.11
2018-11-01T08:27:57.296Z,12.09
2018-11-01T08:29:02.765Z,12.19
2018-11-01T08:30:08.282Z,12.24
2018-11-01T08:31:13.797Z,12.20
2018-11-01T08:32:19.313Z,12.16
2018-11-01T08:33:24.809Z,12.26
2018-11-01T08:34:30.323Z,12.24
2018-11-01T08:35:35.839Z,12.31
2018-11-01T08:36:41.349Z,12.30
2018-11-01T08:37:46.854Z,12.27
2018-11-01T08:38:52.360Z,12.27
2018-11-01T08:39:57.875Z,12.27
2018-11-01T08:41:03.397Z,12.38
2018-11-01T08:42:08.897Z,12.42
2018-11-01T08:43:14.407Z,12.39
2018-11-01T08:44:19.919Z,12.51
2018-11-01T08:45:25.437Z,12.54
2018-11-01T08:46:30.948Z,12.51
2018-11-01T08:47:36.457Z,12.60
2018-11-01T08:48:41.965Z,12.59
2018-11-01T08:49:47.475Z,12.60
2018-11-01T08:50:52.986Z,12.62
2018-11-01T08:51:58.496Z,12.63
2018-11-01T08:53:04.010Z,12.75
2018-11-01T08:54:09.519Z,12.69
2018-11-01T08:55:15.032Z,12.71
2018-11-01T08:56:20.552Z,12.79
2018-11-01T08:57:26.054Z,12.81
2018-11-01T08:58:31.565Z,12.89
2018-11-01T08:59:37.076Z,12.92
2018-11-01T09:00:42.590Z,12.89
2018-11-01T09:01:48.106Z,12.99
2018-11-01T09:02:53.614Z,12.96
2018-11-01T09:03:59.125Z,13.04
2018-11-01T09:05:04.631Z,13.00
2018-11-01T09:06:10.155Z,13.02
2018-11-01T09:07:15.697Z,13.12
2018-11-01T09:08:21.166Z,13.11
2018-11-01T09:09:26.680Z,13.02
2018-11-01T09:10:32.254Z,13.03
2018-11-01T09:11:37.698Z,13.12
2018-11-01T09:12:43.271Z,13.02
2018-11-01T09:13:48.720Z,13.11
2018-11-01T09:14:54.248Z,13.11
2018-11-01T09:15:59.751Z,13.09
2018-11-01T09:17:05.259Z,13.12
2018-11-01T09:18:10.775Z,13.14
2018-11-01T09:19:16.339Z,13.04
2018-11-01T09:20:21.802Z,13.07
2018-11-01T09:21:27.311Z,13.15
2018-11-01T09:22:32.814Z,13.20
2018-11-01T09:23:38.335Z,13.12
2018-11-01T09:24:43.836Z,13.14
2018-11-01T09:25:49.350Z,13.14
2018-11-01T09:26:54.945Z,13.14
2018-11-01T09:28:00.372Z,13.18
2018-11-01T09:29:05.917Z,13.14
2018-11-01T09:30:11.397Z,13.25
2018-11-01T09:31:16.908Z,13.22
2018-11-01T09:32:22.422Z,13.18
2018-11-01T09:33:27.936Z,13.20
2018-11-01T09:34:33.440Z,13.21
2018-11-01T09:35:39.029Z,13.14
2018-11-01T09:36:44.461Z,13.15
2018-11-01T09:37:49.974Z,13.14
2018-11-01T09:38:55.492Z,13.14
2018-11-01T09:40:00.994Z,13.15
2018-11-01T09:41:06.509Z,13.14
2018-11-01T09:42:12.027Z,13.21
2018-11-01T09:43:17.540Z,13.14
2018-11-01T09:44:23.043Z,13.21
2018-11-01T09:45:28.557Z,13.30
2018-11-01T09:46:34.243Z,13.29
2018-11-01T09:47:39.955Z,13.21
2018-11-01T09:48:45.094Z,13.20
2018-11-01T09:49:50.599Z,13.37
2018-11-01T09:50:56.110Z,13.33
2018-11-01T09:52:01.625Z,13.29
2018-11-01T09:53:07.151Z,13.32
2018-11-01T09:54:12.649Z,13.38
2018-11-01T09:55:18.160Z,13.36
2018-11-01T09:56:23.721Z,13.36
2018-11-01T09:57:29.188Z,13.25
2018-11-01T09:58:34.692Z,13.27
2018-11-01T09:59:40.204Z,13.40
2018-11-01T10:00:45.716Z,13.40
2018-11-01T10:01:51.227Z,13.43
2018-11-01T10:02:56.736Z,13.43
2018-11-01T10:04:02.248Z,13.49
2018-11-01T10:05:07.760Z,13.52
2018-11-01T10:06:13.318Z,13.52
2018-11-01T10:07:18.788Z,13.55
2018-11-01T10:08:24.298Z,13.52
2018-11-01T10:09:29.809Z,13.58
2018-11-01T10:10:35.316Z,13.49
2018-11-01T10:11:40.829Z,13.55
2018-11-01T10:12:46.351Z,13.56
2018-11-01T10:13:51.855Z,13.52
2018-11-01T10:14:57.431Z,13.51
2018-11-01T10:16:02.994Z,13.56
2018-11-01T10:17:08.650Z,13.58
2018-11-01T10:18:14.243Z,13.58
2018-11-01T10:19:19.423Z,13.55
2018-11-01T10:20:24.927Z,13.67
2018-11-01T10:21:30.555Z,13.59
2018-11-01T10:22:35.997Z,13.71
2018-11-01T10:23:41.462Z,13.65
2018-11-01T10:24:46.978Z,13.58
2018-11-01T10:25:52.492Z,13.67
2018-11-01T10:26:58.002Z,13.63
2018-11-01T10:28:03.506Z,13.69
2018-11-01T10:29:09.019Z,13.69
2018-11-01T10:30:14.540Z,13.69
2018-11-01T10:31:20.051Z,13.63
2018-11-01T10:32:25.564Z,13.73
2018-11-01T10:33:31.064Z,13.67
2018-11-01T10:34:36.583Z,13.70
2018-11-01T10:35:42.091Z,13.83
2018-11-01T10:36:47.601Z,13.79
2018-11-01T10:37:53.122Z,13.84
2018-11-01T10:38:58.628Z,13.81
2018-11-01T10:40:04.140Z,13.81
2018-11-01T10:41:09.647Z,13.84
2018-11-01T10:42:15.163Z,13.83
2018-11-01T10:43:20.677Z,13.89
2018-11-01T10:44:26.194Z,13.80
2018-11-01T10:45:31.707Z,13.92
2018-11-01T10:46:37.255Z,13.91
2018-11-01T10:47:42.816Z,13.87
2018-11-01T10:48:48.230Z,13.88
2018-11-01T10:49:53.745Z,13.88
2018-11-01T10:50:59.255Z,13.92
2018-11-01T10:52:04.768Z,13.92
2018-11-01T10:53:10.278Z,13.91
2018-11-01T10:54:15.901Z,13.89
2018-11-01T10:55:21.316Z,13.92
2018-11-01T10:56:26.817Z,13.92
2018-11-01T10:57:32.332Z,13.94
2018-11-01T10:58:37.840Z,14.04
2018-11-01T10:59:43.356Z,14.02
2018-11-01T11:00:48.980Z,14.04
2018-11-01T11:01:54.377Z,14.07
2018-11-01T11:02:59.892Z,13.99
2018-11-01T11:04:05.405Z,14.07
2018-11-01T11:05:10.914Z,14.02
2018-11-01T11:06:16.426Z,14.02
2018-11-01T11:07:21.946Z,14.20
2018-11-01T11:08:27.446Z,14.07
2018-11-01T11:09:32.970Z,14.09
2018-11-01T11:10:38.480Z,14.14
2018-11-01T11:11:43.987Z,14.12
2018-11-01T11:12:49.496Z,14.14
2018-11-01T11:13:55.010Z,14.21
2018-11-01T11:15:00.524Z,14.12
2018-11-01T11:16:06.033Z,14.21
2018-11-01T11:17:11.546Z,14.17
2018-11-01T11:18:17.060Z,14.21
2018-11-01T11:19:22.585Z,14.17
2018-11-01T11:20:28.373Z,14.19
2018-11-01T11:21:33.596Z,14.29
2018-11-01T11:22:39.114Z,14.14
2018-11-01T11:23:44.620Z,14.25
2018-11-01T11:24:50.146Z,14.21
2018-11-01T11:25:55.645Z,14.27
2018-11-01T11:27:01.155Z,14.20
2018-11-01T11:28:06.677Z,14.25
2018-11-01T11:29:12.179Z,14.25
2018-11-01T11:30:17.806Z,14.27
2018-11-01T11:31:23.203Z,14.25
2018-11-01T11:32:28.721Z,14.29
2018-11-01T11:33:34.225Z,14.28
2018-11-01T11:34:39.756Z,14.37
2018-11-01T11:35:45.271Z,14.35
2018-11-01T11:36:50.778Z,14.34
2018-11-01T11:37:56.275Z,14.34
2018-11-01T11:39:01.835Z,14.43
2018-11-01T11:40:07.306Z,14.35
2018-11-01T11:41:12.824Z,14.35
2018-11-01T11:42:18.333Z,14.38
2018-11-01T11:43:23.838Z,14.38
2018-11-01T11:44:29.384Z,14.46
2018-11-01T11:45:35.024Z,14.39
2018-11-01T11:46:40.967Z,14.38
2018-11-01T11:47:46.483Z,14.39
2018-11-01T11:48:51.403Z,14.37
2018-11-01T11:49:56.923Z,14.35
2018-11-01T11:51:02.428Z,14.37
2018-11-01T11:52:08.160Z,14.42
2018-11-01T11:53:13.462Z,14.43
2018-11-01T11:54:18.963Z,14.39
2018-11-01T11:55:24.484Z,14.46
2018-11-01T11:56:30.004Z,14.43
2018-11-01T11:57:35.509Z,14.46
2018-11-01T11:58:41.024Z,14.38
2018-11-01T11:59:46.528Z,14.44
2018-11-01T12:00:52.040Z,14.47
2018-11-01T12:01:57.554Z,14.47
2018-11-01T12:03:03.066Z,14.49
2018-11-01T12:04:08.576Z,14.49
2018-11-01T12:05:14.153Z,14.52
2018-11-01T12:06:19.799Z,14.44
2018-11-01T12:07:25.127Z,14.57
2018-11-01T12:08:30.626Z,14.56
2018-11-01T12:09:36.138Z,14.46
2018-11-01T12:10:41.650Z,14.60
2018-11-01T12:11:47.162Z,14.54
2018-11-01T12:12:52.673Z,14.62
2018-11-01T12:13:58.246Z,14.57
2018-11-01T12:15:03.699Z,14.60
2018-11-01T12:16:09.212Z,14.61
2018-11-01T12:17:14.728Z,14.60
2018-11-01T12:18:20.240Z,14.62
2018-11-01T12:19:25.754Z,14.57
2018-11-01T12:20:31.262Z,14.57
2018-11-01T12:21:36.783Z,14.57
2018-11-01T12:22:42.299Z,14.60
2018-11-01T12:23:47.800Z,14.60
2018-11-01T12:24:53.322Z,14.56
2018-11-01T12:25:58.833Z,14.62
2018-11-01T12:27:04.339Z,14.68
2018-11-01T12:28:09.901Z,14.67
2018-11-01T12:29:15.367Z,14.60
2018-11-01T12:30:20.876Z,14.62
2018-11-01T12:31:26.394Z,14.65
2018-11-01T12:32:31.909Z,14.60
2018-11-01T12:33:37.411Z,14.57
2018-11-01T12:34:42.926Z,14.56
2018-11-01T12:35:48.451Z,14.62
2018-11-01T12:36:53.953Z,14.60
2018-11-01T12:37:59.466Z,14.61
2018-11-01T12:39:04.975Z,14.57
2018-11-01T12:40:10.491Z,14.60
2018-11-01T12:41:16.018Z,14.62
2018-11-01T12:42:21.528Z,14.49
2018-11-01T12:43:27.016Z,14.61
2018-11-01T12:44:32.544Z,14.56
2018-11-01T12:45:38.057Z,14.57
2018-11-01T12:46:43.566Z,14.52
2018-11-01T12:47:49.076Z,14.53
2018-11-01T12:48:54.592Z,14.47
2018-11-01T12:50:00.212Z,14.54
2018-11-01T12:51:05.611Z,14.50
2018-11-01T12:52:11.125Z,14.49
2018-11-01T12:53:16.642Z,14.47
2018-11-01T12:54:22.152Z,14.52
2018-11-01T12:55:27.675Z,14.47
2018-11-01T12:56:33.359Z,14.52
2018-11-01T12:57:38.691Z,14.53
2018-11-01T12:58:44.200Z,14.53
2018-11-01T12:59:49.712Z,14.49
2018-11-01T13:00:55.222Z,14.56
2018-11-01T13:02:00.740Z,14.53
2018-11-01T13:03:06.251Z,14.50
2018-11-01T13:04:11.767Z,14.49
2018-11-01T13:05:17.276Z,14.60
2018-11-01T13:06:22.785Z,14.61
2018-11-01T13:07:28.302Z,14.60
2018-11-01T13:08:33.825Z,14.64
2018-11-01T13:09:39.324Z,14.53
2018-11-01T13:10:44.977Z,14.60
2018-11-01T13:11:50.351Z,14.62
2018-11-01T13:12:55.866Z,14.68
2018-11-01T13:14:01.376Z,14.57
2018-11-01T13:15:06.885Z,14.67
2018-11-01T13:16:12.401Z,14.56
2018-11-01T13:17:17.922Z,14.60
2018-11-01T13:18:23.436Z,14.60
2018-11-01T13:19:28.957Z,14.60
2018-11-01T13:20:34.453Z,14.68
2018-11-01T13:21:39.963Z,14.57
2018-11-01T13:22:45.476Z,14.65
2018-11-01T13:23:50.988Z,14.64
2018-11-01T13:24:56.504Z,14.67
2018-11-01T13:26:02.016Z,14.67
2018-11-01T13:27:07.524Z,14.54
2018-11-01T13:28:13.041Z,14.61
2018-11-01T13:29:18.642Z,14.65
2018-11-01T13:30:24.076Z,14.67
2018-11-01T13:31:29.582Z,14.60
2018-11-01T13:32:35.105Z,14.61
2018-11-01T13:33:40.603Z,14.67
2018-11-01T13:34:46.154Z,14.62
2018-11-01T13:35:51.626Z,14.62
2018-11-01T13:36:57.141Z,14.60
2018-11-01T13:38:02.666Z,14.57
2018-11-01T13:39:08.161Z,14.56
2018-11-01T13:40:13.861Z,14.61
2018-11-01T13:41:19.231Z,14.61
2018-11-01T13:42:24.700Z,14.60
2018-11-01T13:43:30.213Z,14.50
2018-11-01T13:44:35.717Z,14.50
2018-11-01T13:45:41.247Z,14.53
2018-11-01T13:46:46.758Z,14.49
2018-11-01T13:47:52.325Z,14.49
2018-11-01T13:48:57.802Z,14.44
2018-11-01T13:50:03.289Z,14.49
2018-11-01T13:51:08.796Z,14.50
2018-11-01T13:52:14.311Z,14.53
2018-11-01T13:53:19.832Z,14.49
2018-11-01T13:54:25.388Z,14.52
2018-11-01T13:55:30.858Z,14.52
2018-11-01T13:56:36.442Z,14.43
2018-11-01T13:57:41.877Z,14.44
2018-11-01T13:58:47.386Z,14.47
2018-11-01T13:59:52.902Z,14.43
2018-11-01T14:00:58.409Z,14.49
2018-11-01T14:02:03.926Z,14.49
2018-11-01T14:03:09.434Z,14.49
2018-11-01T14:04:14.957Z,14.50
2018-11-01T14:05:20.479Z,14.50
2018-11-01T14:06:26.059Z,14.44
2018-11-01T14:07:31.497Z,14.50
2018-11-01T14:08:36.999Z,14.50